Time;durP1;ratioP1;P1;durP2;ratioP2;P2;SDS_P1;SDS_P2;PMS_P1;PMS_P2;Temp;Humidity;BMP_temperature;BMP_pressure;BME280_temperature;BME280_humidity;BME280_pressure;Samples;Min_cycle;Max_cycle;Signal;HPM_P1;HPM_P2
2022/12/27 00:02:31;;;;;;;2.20;2.10;;;;;;;11.46;54.72;99597.66;7086878;27;20298;-78
2022/12/27 00:05:52;;;;;;;1.77;1.70;;;;;;;11.56;54.29;99605.47;7085874;27;20267;-78
2022/12/27 00:09:14;;;;;;;2.27;2.07;;;;;;;11.05;55.04;99603.81;7086646;27;20634;-78
2022/12/27 00:12:37;;;;;;;3.20;1.80;;;;;;;11.00;55.24;99599.00;7086528;27;20609;-77
2022/12/27 00:16:03;;;;;;;2.73;2.00;;;;;;;11.56;54.00;99611.69;7085909;27;20280;-77
2022/12/27 00:19:24;;;;;;;2.23;2.03;;;;;;;11.52;54.18;99625.78;7086353;27;20363;-78
2022/12/27 00:22:46;;;;;;;3.23;1.90;;;;;;;11.21;54.00;99625.19;7086400;27;20214;-78
2022/12/27 00:26:09;;;;;;;4.83;2.10;;;;;;;11.08;54.64;99625.00;7085620;27;20266;-77
2022/12/27 00:29:32;;;;;;;2.10;1.90;;;;;;;11.13;53.94;99630.69;7085377;27;20295;-77
2022/12/27 00:32:53;;;;;;;1.93;1.83;;;;;;;11.40;53.64;99635.41;7086173;27;20914;-77
2022/12/27 00:36:17;;;;;;;2.47;1.90;;;;;;;11.18;53.88;99645.31;7085796;27;20211;-77
2022/12/27 00:39:38;;;;;;;3.00;2.03;;;;;;;11.31;53.51;99650.88;7085625;27;20278;-77
2022/12/27 00:42:59;;;;;;;1.93;1.83;;;;;;;11.42;52.69;99671.13;7085927;27;20203;-77
2022/12/27 00:46:22;;;;;;;2.23;2.03;;;;;;;11.21;52.60;99665.69;7085311;27;20287;-78
2022/12/27 00:49:44;;;;;;;4.13;2.87;;;;;;;10.97;52.49;99684.84;7085609;27;20278;-77
2022/12/27 00:53:05;;;;;;;4.10;2.10;;;;;;;11.06;52.12;99700.78;7085128;27;20228;-77
2022/12/27 00:56:28;;;;;;;3.97;2.20;;;;;;;10.81;52.60;99696.66;7084302;27;20202;-78
2022/12/27 00:59:50;;;;;;;2.33;1.80;;;;;;;10.66;52.93;99717.41;7085446;27;20297;-77
2022/12/27 01:03:13;;;;;;;2.10;2.00;;;;;;;10.61;52.92;99702.78;7085632;27;20207;-78
2022/12/27 01:06:35;;;;;;;1.93;1.83;;;;;;;10.80;52.91;99718.47;7084852;27;20828;-77
2022/12/27 01:09:56;;;;;;;2.30;2.00;;;;;;;10.04;54.12;99733.94;7085185;27;20367;-78
2022/12/27 01:13:18;;;;;;;6.33;2.30;;;;;;;10.48;53.55;99722.28;7085370;27;20199;-77
2022/12/27 01:16:39;;;;;;;2.77;1.83;;;;;;;10.53;53.20;99733.38;7084573;27;20260;-77
2022/12/27 01:20:03;;;;;;;4.07;2.40;;;;;;;10.70;52.29;99742.97;7084598;27;20231;-78
2022/12/27 01:23:26;;;;;;;4.10;2.10;;;;;;;10.48;52.75;99751.09;7084912;27;20313;-78
2022/12/27 01:26:48;;;;;;;2.63;1.80;;;;;;;10.55;52.29;99734.03;7084064;27;20216;-78
2022/12/27 01:30:10;;;;;;;4.33;1.87;;;;;;;10.66;52.57;99757.84;7084715;27;20282;-77
2022/12/27 01:33:32;;;;;;;2.47;2.10;;;;;;;10.50;52.57;99768.78;7104040;27;20596;-77
2022/12/27 01:36:54;;;;;;;2.93;2.13;;;;;;;10.37;51.11;99782.03;7141542;27;20209;-77
2022/12/27 01:40:16;;;;;;;2.87;1.93;;;;;;;10.15;51.37;99798.22;7142850;27;20652;-77
2022/12/27 01:43:38;;;;;;;2.23;1.80;;;;;;;10.26;50.88;99795.94;7143333;27;20258;-77
2022/12/27 01:47:00;;;;;;;1.90;1.80;;;;;;;10.02;51.07;99811.38;7143539;27;20270;-77
2022/12/27 01:50:26;;;;;;;3.30;2.10;;;;;;;10.47;50.82;99808.75;7144909;27;20305;-78
2022/12/27 01:53:50;;;;;;;2.90;1.80;;;;;;;10.63;50.40;99806.75;7127658;27;20208;-78
2022/12/27 01:57:11;;;;;;;2.03;1.93;;;;;;;10.61;50.86;99816.91;7084341;28;20212;-78
2022/12/27 02:00:33;;;;;;;2.27;1.93;;;;;;;10.35;50.41;99818.28;7084667;28;20227;-78
2022/12/27 02:03:56;;;;;;;4.57;2.00;;;;;;;10.46;50.84;99824.06;7084552;28;20208;-77
2022/12/27 02:07:18;;;;;;;4.53;2.40;;;;;;;10.16;52.44;99826.84;7088197;27;20294;-78
2022/12/27 02:10:42;;;;;;;2.87;1.80;;;;;;;10.27;51.81;99838.03;7089780;27;20283;-78
2022/12/27 02:14:03;;;;;;;1.97;1.77;;;;;;;10.14;51.35;99818.91;7089122;27;20210;-78
2022/12/27 02:17:27;;;;;;;2.80;2.07;;;;;;;10.16;51.11;99818.75;7088716;27;20574;-77
2022/12/27 02:21:15;;;;;;;4.03;2.50;;;;;;;10.11;51.37;99830.03;7089017;27;20223;-78
2022/12/27 02:25:02;;;;;;;3.03;2.40;;;;;;;9.56;52.93;99844.59;7089768;27;20188;-77
2022/12/27 02:28:41;;;;;;;2.20;2.00;;;;;;;9.13;54.12;99847.72;7089226;27;20283;-77
2022/12/27 02:32:06;;;;;;;2.53;2.20;;;;;;;9.45;53.76;99855.72;7089015;27;20311;-78
2022/12/27 02:35:32;;;;;;;2.10;2.00;;;;;;;9.16;54.83;99832.06;7088116;27;20257;-77
2022/12/27 02:38:56;;;;;;;2.60;2.10;;;;;;;9.01;54.86;99851.75;7088604;27;20254;-78
2022/12/27 02:53:35;;;;;;;7.13;2.50;;;;;;;9.45;52.95;99850.34;7123644;27;20195;-78
2022/12/27 02:57:08;;;;;;;2.50;2.30;;;;;;;9.25;54.13;99860.66;7123719;27;20187;-77
2022/12/27 03:04:27;;;;;;;3.03;2.60;;;;;;;8.61;55.48;99851.78;7090777;27;20195;-78
2022/12/27 03:07:51;;;;;;;3.50;2.50;;;;;;;8.43;56.08;99861.84;7116521;27;20717;-78
2022/12/27 03:19:01;;;;;;;4.30;2.63;;;;;;;8.68;56.00;99865.38;7116899;27;20212;-78
2022/12/27 03:26:20;;;;;;;3.13;2.20;;;;;;;8.35;55.84;99858.28;7115193;27;20211;-77
2022/12/27 03:33:21;;;;;;;2.40;2.20;;;;;;;8.64;55.51;99864.88;7026880;28;20201;-77
2022/12/27 03:40:29;;;;;;;2.13;2.03;;;;;;;8.58;55.63;99883.53;7027034;28;20231;-77
2022/12/27 03:43:50;;;;;;;3.20;2.50;;;;;;;8.63;55.21;99878.50;7026976;28;20571;-77
2022/12/27 03:47:19;;;;;;;4.63;2.00;;;;;;;8.49;55.35;99882.66;7025998;28;20237;-78
2022/12/27 03:50:44;;;;;;;7.73;4.63;;;;;;;8.33;56.56;99889.88;7026309;28;20223;-77
2022/12/27 03:54:09;;;;;;;2.20;2.07;;;;;;;8.32;56.25;99883.63;7027280;28;20236;-78
2022/12/27 03:57:32;;;;;;;2.67;2.47;;;;;;;8.00;57.21;99882.69;7022417;28;20302;-78
2022/12/27 04:00:53;;;;;;;3.67;2.40;;;;;;;8.09;56.83;99879.88;7027405;28;20259;-78
2022/12/27 04:04:15;;;;;;;2.47;2.27;;;;;;;8.30;56.75;99874.09;7027519;28;20797;-78
2022/12/27 04:07:36;;;;;;;3.20;2.53;;;;;;;8.27;56.15;99880.63;7103131;27;20341;-78
2022/12/27 04:36:33;;;;;;;5.30;3.23;;;;;;;8.08;56.81;99888.09;7084600;27;20186;-77
2022/12/27 04:54:56;;;;;;;5.23;2.57;;;;;;;8.23;55.23;99898.06;7008822;27;20244;-78
2022/12/27 04:58:18;;;;;;;6.60;2.27;;;;;;;8.25;54.97;99900.59;7114289;27;20325;-78
2022/12/27 05:05:18;;;;;;;2.57;2.27;;;;;;;8.49;53.85;99890.72;7112450;27;20194;-78
2022/12/27 05:15:59;;;;;;;2.80;2.47;;;;;;;8.07;54.58;99900.66;7112421;27;20217;-78
2022/12/27 05:19:21;;;;;;;2.80;2.40;;;;;;;8.17;54.01;99909.44;7112802;27;20360;-77
2022/12/27 05:26:25;;;;;;;3.53;2.27;;;;;;;8.19;54.25;99915.47;7112678;27;20647;-77
2022/12/27 05:29:46;;;;;;;4.90;2.50;;;;;;;8.05;54.43;99908.06;7112418;27;20313;-78
2022/12/27 05:33:08;;;;;;;4.03;2.67;;;;;;;7.86;54.89;99928.94;7112802;27;20205;-76
2022/12/27 05:36:30;;;;;;;2.37;2.27;;;;;;;8.01;54.55;99901.31;7112462;27;20336;-77
2022/12/27 05:39:51;;;;;;;2.50;2.27;;;;;;;8.13;54.49;99940.31;7112928;27;20354;-78
2022/12/27 05:43:14;;;;;;;6.80;2.47;;;;;;;7.76;55.38;99934.44;7118359;27;20230;-76
2022/12/27 05:46:35;;;;;;;5.10;2.33;;;;;;;7.96;55.40;99946.59;7117377;27;20333;-78
2022/12/27 05:49:57;;;;;;;2.40;2.20;;;;;;;8.22;55.08;99951.97;7118033;27;20857;-78
2022/12/27 05:53:18;;;;;;;2.70;2.30;;;;;;;8.07;54.43;99940.13;7117961;27;20203;-77
2022/12/27 05:56:40;;;;;;;3.33;2.20;;;;;;;7.15;56.39;99939.09;7117136;27;20273;-77
2022/12/27 06:00:04;;;;;;;4.93;2.30;;;;;;;7.40;56.98;99951.66;7117657;27;20229;-78
2022/12/27 06:03:26;;;;;;;3.00;2.80;;;;;;;6.60;58.84;99940.25;7122544;27;20345;-77
2022/12/27 06:06:47;;;;;;;21.10;9.40;;;;;;;7.05;58.88;99959.78;7144057;27;20207;-77
2022/12/27 06:10:09;;;;;;;2.70;2.50;;;;;;;6.57;58.97;99964.69;7146913;27;20696;-78
2022/12/27 06:13:31;;;;;;;2.73;2.50;;;;;;;7.51;57.14;99940.69;7146864;27;20677;-78
2022/12/27 06:16:54;;;;;;;5.40;3.10;;;;;;;7.56;55.89;99932.16;7145352;27;20204;-78
2022/12/27 06:20:16;;;;;;;5.80;2.87;;;;;;;7.74;55.31;99949.88;7146493;27;20308;-78
2022/12/27 06:23:38;;;;;;;3.43;2.63;;;;;;;6.90;58.00;99960.47;7145592;27;20335;-77
2022/12/27 06:27:00;;;;;;;2.87;2.57;;;;;;;6.46;59.54;99959.53;7145574;27;20297;-77
2022/12/27 06:30:21;;;;;;;5.00;2.70;;;;;;;6.80;58.71;99963.25;7145335;27;20231;-78
2022/12/27 06:33:45;;;;;;;4.83;2.73;;;;;;;6.75;59.20;99962.00;7145154;27;20290;-77
2022/12/27 06:37:06;;;;;;;3.43;3.07;;;;;;;6.25;60.37;99967.00;7142682;27;20660;-76
2022/12/27 06:40:28;;;;;;;3.63;3.33;;;;;;;6.32;60.55;99941.28;7105109;27;20282;-77
2022/12/27 06:43:54;;;;;;;2.93;2.73;;;;;;;7.24;58.55;99974.84;7105966;27;20205;-78
2022/12/27 06:47:15;;;;;;;3.83;2.90;;;;;;;6.96;59.10;99971.41;7103596;27;20217;-78
2022/12/27 06:50:38;;;;;;;5.00;2.93;;;;;;;7.17;57.38;99953.16;7112043;27;20262;-78
2022/12/27 06:54:00;;;;;;;5.30;2.80;;;;;;;6.71;58.51;99925.81;7107871;27;20268;-78
2022/12/27 06:57:21;;;;;;;6.80;5.60;;;;;;;6.54;60.12;99981.03;7087907;27;20225;-78
2022/12/27 07:00:43;;;;;;;3.00;2.57;;;;;;;7.02;58.45;99980.69;7088644;27;20304;-78
2022/12/27 07:04:05;;;;;;;3.63;2.90;;;;;;;7.09;58.44;99993.34;7117489;27;20731;-78
2022/12/27 07:07:28;;;;;;;2.93;2.63;;;;;;;6.89;58.61;99969.53;7115825;27;20603;-78
2022/12/27 07:10:49;;;;;;;6.47;3.30;;;;;;;7.21;57.58;99989.41;7102827;27;20265;-77
2022/12/27 07:14:11;;;;;;;5.10;2.60;;;;;;;7.32;57.52;99989.16;7116869;27;20200;-78
2022/12/27 07:17:34;;;;;;;4.30;3.03;;;;;;;7.36;57.05;99997.75;7116209;27;20195;-78
2022/12/27 07:20:55;;;;;;;3.70;2.53;;;;;;;7.90;56.63;99979.47;7118548;27;20700;-76
2022/12/27 07:24:18;;;;;;;3.07;2.60;;;;;;;8.09;55.15;99960.47;7105612;27;20211;-80
2022/12/27 07:27:39;;;;;;;3.00;2.80;;;;;;;8.25;54.17;99949.78;7105048;27;20286;-78
2022/12/27 07:31:06;;;;;;;2.80;2.60;;;;;;;8.16;55.00;99993.72;7092104;27;20324;-80
2022/12/27 07:34:27;;;;;;;4.77;2.50;;;;;;;7.92;54.62;99992.75;7110812;27;20250;-79
2022/12/27 07:37:49;;;;;;;3.43;2.70;;;;;;;7.56;55.61;100005.47;7121156;27;20304;-77
2022/12/27 07:41:12;;;;;;;5.73;3.30;;;;;;;7.02;58.06;100010.19;7109344;27;20706;-78
2022/12/27 07:44:34;;;;;;;5.77;2.93;;;;;;;6.99;58.00;99986.34;7115519;27;20305;-80
2022/12/27 07:47:56;;;;;;;3.50;3.20;;;;;;;6.96;57.73;99955.31;7123068;27;20197;-83
2022/12/27 07:51:17;;;;;;;5.00;4.20;;;;;;;6.46;59.97;100010.44;7112414;27;20356;-79
2022/12/27 07:54:39;;;;;;;4.47;3.57;;;;;;;7.36;57.63;99993.22;7113313;27;20204;-80
2022/12/27 07:58:01;;;;;;;4.57;2.97;;;;;;;7.65;57.36;99996.44;7116742;27;20690;-78
2022/12/27 08:01:25;;;;;;;3.30;3.00;;;;;;;7.71;56.01;100003.03;7111448;27;20237;-78
2022/12/27 08:04:46;;;;;;;5.80;3.30;;;;;;;8.47;54.79;100002.94;7095300;27;20340;-80
2022/12/27 08:08:08;;;;;;;2.97;2.77;;;;;;;8.84;53.35;99998.00;7110531;27;20209;-80
2022/12/27 08:11:30;;;;;;;2.70;2.50;;;;;;;8.29;53.75;100004.88;7108067;27;20257;-77
2022/12/27 08:14:53;;;;;;;3.63;2.43;;;;;;;8.29;54.23;99972.66;7096912;27;20291;-73
2022/12/27 08:18:14;;;;;;;3.60;2.80;;;;;;;9.05;52.28;99993.00;7102135;27;20726;-78
2022/12/27 08:21:36;;;;;;;2.97;2.63;;;;;;;8.64;53.09;99991.25;7085092;27;20289;-76
2022/12/27 08:24:57;;;;;;;3.90;3.50;;;;;;;9.05;52.99;99993.00;7085095;27;20734;-77
2022/12/27 08:28:19;;;;;;;6.27;2.80;;;;;;;8.93;52.45;99991.63;7090139;27;20265;-76
2022/12/27 08:31:42;;;;;;;4.33;3.00;;;;;;;8.56;54.03;99991.22;7103486;27;20761;-76
2022/12/27 08:35:03;;;;;;;6.43;3.13;;;;;;;8.33;53.90;99982.06;7105987;27;20303;-77
2022/12/27 08:38:25;;;;;;;3.60;2.87;;;;;;;8.72;53.76;99998.50;7107325;27;20295;-76
2022/12/27 08:41:46;;;;;;;5.07;2.80;;;;;;;9.01;52.70;99994.31;7113111;27;20235;-76
2022/12/27 08:45:09;;;;;;;6.93;2.63;;;;;;;9.36;52.04;99997.56;7105073;27;20205;-78
2022/12/27 08:48:32;;;;;;;3.00;2.53;;;;;;;10.29;49.96;100005.84;7108800;27;20669;-79
2022/12/27 08:51:54;;;;;;;3.17;2.87;;;;;;;10.64;48.33;99956.75;7110849;27;20219;-76
2022/12/27 08:55:16;;;;;;;2.57;2.33;;;;;;;11.17;47.74;100007.19;7100170;27;20210;-77
2022/12/27 08:58:37;;;;;;;4.10;2.37;;;;;;;11.36;46.90;99998.59;7101441;27;20210;-76
2022/12/27 09:01:59;;;;;;;3.37;2.27;;;;;;;11.42;46.22;100009.53;7111760;27;20317;-75
2022/12/27 09:05:22;;;;;;;2.93;2.33;;;;;;;11.27;46.85;99997.81;7101506;27;20214;-79
2022/12/27 09:08:45;;;;;;;2.67;2.37;;;;;;;11.12;47.86;100018.53;7086112;27;20289;-78
2022/12/27 09:12:06;;;;;;;4.07;2.57;;;;;;;11.22;47.77;100002.09;7105843;27;20302;-75
2022/12/27 09:15:28;;;;;;;5.57;3.30;;;;;;;11.39;47.42;100019.84;7114950;27;20277;-76
2022/12/27 09:18:51;;;;;;;3.47;3.17;;;;;;;11.23;47.87;100011.88;7119376;27;20328;-78
2022/12/27 09:22:14;;;;;;;8.37;3.40;;;;;;;11.50;47.50;100009.44;7119751;27;20223;-75
2022/12/27 09:25:38;;;;;;;4.60;3.33;;;;;;;11.64;47.24;100003.28;7113230;27;20559;-76
2022/12/27 09:29:00;;;;;;;4.00;3.00;;;;;;;11.90;47.25;100013.66;7107783;27;20298;-78
2022/12/27 09:32:26;;;;;;;5.63;3.13;;;;;;;11.54;48.12;99972.13;7102736;27;20234;-77
2022/12/27 09:35:47;;;;;;;8.43;3.23;;;;;;;11.77;46.45;100027.81;7110387;27;20194;-79
2022/12/27 09:39:12;;;;;;;5.53;2.90;;;;;;;11.40;47.31;100026.94;7118365;27;20289;-79
2022/12/27 09:42:45;;;;;;;4.50;2.47;;;;;;;12.10;46.12;100033.75;7117574;27;20226;-81
2022/12/27 09:46:14;;;;;;;3.37;2.60;;;;;;;11.63;46.36;100035.91;7116926;27;20198;-78
2022/12/27 09:49:38;;;;;;;3.83;2.63;;;;;;;11.95;46.11;100036.44;7112478;27;20300;-77
2022/12/27 09:53:02;;;;;;;2.90;2.13;;;;;;;12.29;44.90;100038.59;7107294;27;20230;-78
2022/12/27 09:56:27;;;;;;;5.60;2.77;;;;;;;12.66;43.96;100019.53;7117764;27;20289;-77
2022/12/27 09:59:53;;;;;;;4.00;2.57;;;;;;;12.78;44.77;100029.72;7117991;27;20322;-77
2022/12/27 10:03:14;;;;;;;4.03;2.60;;;;;;;12.98;43.93;100028.09;7117804;27;20223;-78
2022/12/27 10:06:48;;;;;;;4.97;2.20;;;;;;;12.45;44.89;100011.38;7117987;27;20297;-78
2022/12/27 10:10:17;;;;;;;6.83;2.70;;;;;;;12.81;43.66;100026.59;7118016;27;20305;-78
2022/12/27 10:13:46;;;;;;;4.63;2.87;;;;;;;12.88;43.83;100013.16;7117923;27;20195;-79
2022/12/27 10:17:12;;;;;;;2.90;2.57;;;;;;;13.12;43.61;100004.72;7117842;27;20215;-78
2022/12/27 10:20:47;;;;;;;2.77;2.50;;;;;;;13.39;42.93;100022.94;7118167;27;20356;-79
2022/12/27 10:24:17;;;;;;;3.97;2.27;;;;;;;12.94;41.79;100018.66;7117522;27;20254;-78
2022/12/27 10:27:39;;;;;;;2.90;2.10;;;;;;;12.73;43.17;100017.75;7117271;27;20195;-77
2022/12/27 10:31:04;;;;;;;6.23;2.30;;;;;;;12.88;42.59;100013.16;7117193;27;20375;-78
2022/12/27 10:34:25;;;;;;;2.77;2.10;;;;;;;12.77;43.23;100005.53;7117335;27;20904;-78
2022/12/27 10:37:48;;;;;;;3.37;2.60;;;;;;;12.95;43.37;100000.53;7116979;27;20358;-78
2022/12/27 10:41:23;;;;;;;3.67;2.40;;;;;;;12.81;42.28;99994.13;7116992;27;20227;-78
2022/12/27 10:44:44;;;;;;;3.93;2.27;;;;;;;12.61;43.23;100003.03;7086898;27;20204;-80
2022/12/27 10:48:16;;;;;;;4.17;1.90;;;;;;;12.83;42.29;99999.34;7088579;27;20264;-78
2022/12/27 10:51:39;;;;;;;3.03;1.90;;;;;;;13.55;42.27;99999.09;7088021;27;20248;-77
2022/12/27 10:55:00;;;;;;;2.13;1.77;;;;;;;13.59;39.97;99983.28;7087966;27;20345;-78
2022/12/27 10:58:38;;;;;;;2.40;1.93;;;;;;;13.64;40.07;99995.22;7097471;27;20794;-78
2022/12/27 11:02:16;;;;;;;2.97;1.87;;;;;;;13.34;40.79;99984.75;7087795;27;20321;-78
2022/12/27 11:05:39;;;;;;;4.50;2.40;;;;;;;13.42;40.94;99984.59;7087599;27;20195;-78
2022/12/27 11:09:19;;;;;;;4.27;2.50;;;;;;;13.27;41.43;99987.38;7088045;27;20199;-78
2022/12/27 11:12:54;;;;;;;2.00;1.80;;;;;;;12.99;41.92;99983.75;7088320;27;20188;-78
2022/12/27 11:16:20;;;;;;;2.73;1.93;;;;;;;12.85;42.53;99989.16;7106807;27;20335;-78
2022/12/27 11:19:45;;;;;;;2.97;2.40;;;;;;;13.44;41.65;99990.66;7116079;27;20247;-79
2022/12/27 11:23:12;;;;;;;3.20;2.30;;;;;;;13.31;41.52;99982.41;7116022;27;20211;-78
2022/12/27 11:26:40;;;;;;;5.07;2.27;;;;;;;13.77;40.08;99995.34;7115442;27;20266;-78
2022/12/27 11:30:01;;;;;;;3.60;2.33;;;;;;;13.51;41.17;99980.75;7115338;27;20282;-78
2022/12/27 11:33:26;;;;;;;4.43;2.40;;;;;;;14.07;40.83;99983.25;7093940;27;20200;-78
2022/12/27 11:36:50;;;;;;;3.40;2.00;;;;;;;13.89;40.69;99977.50;7095913;27;20232;-78
2022/12/27 11:40:23;;;;;;;4.00;2.30;;;;;;;13.30;40.87;99973.47;7113726;27;20215;-78
2022/12/27 11:43:48;;;;;;;3.67;2.00;;;;;;;12.95;41.90;99968.06;7114803;27;20251;-78
2022/12/27 11:47:13;;;;;;;2.20;2.00;;;;;;;12.88;42.75;99976.13;7112526;27;20203;-78
2022/12/27 11:50:46;;;;;;;6.10;2.43;;;;;;;13.96;40.77;99963.97;7115872;27;20274;-78
2022/12/27 11:54:17;;;;;;;5.73;2.80;;;;;;;13.01;42.29;99956.47;7112072;27;20686;-78
2022/12/27 11:57:59;;;;;;;2.57;2.37;;;;;;;12.94;42.75;99955.56;7086647;27;20180;-79
2022/12/27 12:01:48;;;;;;;2.67;2.20;;;;;;;14.01;40.15;99958.78;7087025;27;20804;-78
2022/12/27 12:05:40;;;;;;;9.43;2.40;;;;;;;14.05;40.74;99970.94;7110351;27;20293;-78
2022/12/27 12:09:21;;;;;;;2.70;2.00;;;;;;;13.65;41.07;99963.53;7115373;27;20192;-79
2022/12/27 12:13:09;;;;;;;5.00;2.00;;;;;;;13.35;42.38;99957.47;7111917;27;20835;-78
2022/12/27 12:16:53;;;;;;;3.20;2.90;;;;;;;12.43;43.58;99962.00;7115085;27;20195;-77
2022/12/27 12:20:32;;;;;;;4.27;2.17;;;;;;;13.10;43.07;99949.94;7097027;27;20317;-80
2022/12/27 12:24:13;;;;;;;2.90;1.83;;;;;;;13.39;41.50;99931.66;7086882;27;20219;-78
2022/12/27 12:27:50;;;;;;;4.63;2.03;;;;;;;13.75;40.94;99956.72;7109394;27;20278;-78
2022/12/27 12:31:27;;;;;;;3.87;1.70;;;;;;;13.39;41.98;99955.22;7115555;27;20711;-76
2022/12/27 12:35:03;;;;;;;2.90;1.90;;;;;;;13.59;41.67;99942.66;7115004;27;20229;-77
2022/12/27 12:38:31;;;;;;;2.93;1.80;;;;;;;12.85;41.96;99935.88;7115693;27;20273;-80
2022/12/27 12:42:04;;;;;;;3.07;1.90;;;;;;;13.23;42.00;99950.03;7114990;27;20303;-78
2022/12/27 12:45:34;;;;;;;5.10;2.40;;;;;;;13.66;41.10;99955.22;7103526;27;20203;-78
2022/12/27 12:49:10;;;;;;;3.87;2.30;;;;;;;13.04;42.20;99954.22;7087107;27;20283;-78
2022/12/27 12:52:42;;;;;;;4.93;2.20;;;;;;;11.83;44.61;99940.63;7089871;27;20287;-78
2022/12/27 12:56:19;;;;;;;4.83;2.00;;;;;;;12.90;42.82;99940.72;7085537;27;20203;-78
2022/12/27 12:59:59;;;;;;;3.60;1.97;;;;;;;13.48;42.32;99940.47;7086163;27;20309;-77
2022/12/27 13:03:49;;;;;;;4.30;2.30;;;;;;;13.78;41.73;99942.81;7086071;27;20302;-77
2022/12/27 13:07:40;;;;;;;4.30;2.17;;;;;;;13.95;41.85;99929.75;7062507;27;20287;-78
2022/12/27 13:11:20;;;;;;;3.93;2.20;;;;;;;14.13;40.96;99928.22;7071674;27;20251;-79
2022/12/27 13:15:00;;;;;;;4.10;2.20;;;;;;;13.66;41.27;99930.81;7086766;27;20283;-77
2022/12/27 13:18:26;;;;;;;3.13;2.43;;;;;;;13.94;41.30;99931.66;7110772;27;20206;-77
2022/12/27 13:21:57;;;;;;;3.43;2.20;;;;;;;13.91;41.95;99932.03;7114622;27;20249;-77
2022/12/27 13:25:27;;;;;;;2.60;2.20;;;;;;;13.37;42.79;99927.44;7115178;27;20255;-77
2022/12/27 13:28:59;;;;;;;2.53;2.33;;;;;;;14.09;41.31;99923.41;7119231;27;20293;-77
2022/12/27 13:32:27;;;;;;;2.83;2.10;;;;;;;13.88;41.49;99918.03;7112461;27;20748;-78
2022/12/27 13:36:06;;;;;;;2.77;1.87;;;;;;;13.96;41.30;99915.16;7088527;27;20274;-79
2022/12/27 13:39:39;;;;;;;7.57;2.97;;;;;;;13.51;41.79;99891.31;7089709;27;20851;-78
2022/12/27 13:43:36;;;;;;;2.63;2.10;;;;;;;13.39;42.97;99920.00;7087788;27;20239;-78
2022/12/27 13:47:12;;;;;;;3.33;2.13;;;;;;;13.88;42.07;99909.91;7094923;27;20282;-78
2022/12/27 13:50:42;;;;;;;5.77;2.50;;;;;;;14.06;41.60;99911.06;7116241;27;20422;-79
2022/12/27 13:54:19;;;;;;;2.13;1.93;;;;;;;13.80;41.62;99907.38;7115437;27;20270;-78
2022/12/27 13:57:59;;;;;;;5.67;2.10;;;;;;;13.66;42.42;99905.59;7115323;27;20251;-78
2022/12/27 14:01:38;;;;;;;4.70;2.10;;;;;;;13.09;43.17;99903.03;7120290;27;20250;-78
2022/12/27 14:05:20;;;;;;;3.20;2.00;;;;;;;13.74;42.14;99895.44;7129275;27;20339;-77
2022/12/27 14:09:19;;;;;;;2.93;1.90;;;;;;;13.31;43.61;99901.16;7130009;27;20191;-77
2022/12/27 14:12:55;;;;;;;2.43;1.87;;;;;;;13.51;42.16;99883.19;7123659;27;20226;-78
2022/12/27 14:16:28;;;;;;;4.13;1.90;;;;;;;13.79;42.44;99903.81;7120827;27;20301;-79
2022/12/27 14:20:13;;;;;;;2.83;1.80;;;;;;;13.22;42.23;99832.75;7112314;27;20226;-79
2022/12/27 14:23:44;;;;;;;2.30;2.10;;;;;;;13.74;42.61;99898.13;7091426;27;20211;-79
2022/12/27 14:27:41;;;;;;;4.63;2.43;;;;;;;13.43;43.14;99907.72;7091100;27;20240;-78
2022/12/27 14:31:33;;;;;;;5.70;2.40;;;;;;;13.47;42.83;99911.69;7095496;27;20314;-77
2022/12/27 14:35:29;;;;;;;2.83;2.50;;;;;;;13.14;43.85;99914.13;7117593;27;20203;-77
2022/12/27 14:39:14;;;;;;;4.20;2.27;;;;;;;13.27;44.32;99918.84;7102618;27;20732;-77
2022/12/27 14:42:56;;;;;;;3.57;2.13;;;;;;;13.23;43.74;99925.69;7089338;27;20211;-77
2022/12/27 14:46:43;;;;;;;2.43;2.10;;;;;;;12.99;44.65;99918.78;7089915;27;20276;-78
2022/12/27 14:50:23;;;;;;;4.53;2.20;;;;;;;13.23;44.31;99920.25;7090957;27;20231;-76
2022/12/27 14:54:16;;;;;;;3.50;2.10;;;;;;;13.10;44.94;99912.03;7118576;27;20705;-78
2022/12/27 14:57:42;;;;;;;6.13;2.57;;;;;;;13.00;44.53;99919.63;7109126;27;20636;-79
2022/12/27 15:01:10;;;;;;;3.57;2.27;;;;;;;12.90;45.08;99910.94;7107558;27;20241;-76
2022/12/27 15:05:06;;;;;;;2.37;2.00;;;;;;;13.09;44.88;99919.28;7099475;27;20214;-80
2022/12/27 15:08:45;;;;;;;5.07;2.67;;;;;;;12.98;45.02;99921.69;7091695;27;20191;-77
2022/12/27 15:12:14;;;;;;;5.70;3.90;;;;;;;13.09;44.63;99918.47;7090786;27;20382;-79
2022/12/27 15:15:47;;;;;;;5.73;3.77;;;;;;;12.80;45.07;99910.44;7097481;27;20214;-78
2022/12/27 15:19:19;;;;;;;4.70;2.60;;;;;;;13.06;44.54;99924.25;7118492;27;20330;-79
2022/12/27 15:22:50;;;;;;;5.77;3.30;;;;;;;12.78;45.04;99918.75;7118429;27;20705;-82
2022/12/27 15:26:20;;;;;;;4.83;3.10;;;;;;;12.50;45.40;99906.97;7117789;27;20335;-80
2022/12/27 15:29:52;;;;;;;5.00;2.70;;;;;;;12.30;45.86;99894.25;7118583;27;20257;-80
2022/12/27 15:33:20;;;;;;;5.27;2.53;;;;;;;12.47;45.99;99911.94;7117920;27;20293;-80
2022/12/27 15:36:45;;;;;;;5.17;3.30;;;;;;;12.33;46.84;99905.53;7118620;27;20269;-80
2022/12/27 15:40:23;;;;;;;4.40;2.90;;;;;;;12.36;46.52;99888.94;7118836;27;20346;-80
2022/12/27 15:44:15;;;;;;;4.03;2.87;;;;;;;11.67;48.05;99892.16;7118750;27;20231;-80
2022/12/27 15:47:51;;;;;;;4.03;3.00;;;;;;;11.47;49.01;99896.41;7119836;27;20211;-80
2022/12/27 15:51:23;;;;;;;7.07;3.60;;;;;;;11.56;48.99;99889.06;7093084;27;20726;-81
2022/12/27 15:54:58;;;;;;;6.80;4.00;;;;;;;11.43;49.70;99889.69;7091593;27;20286;-80
2022/12/27 15:58:20;;;;;;;4.80;3.17;;;;;;;11.22;50.06;99892.25;7092005;27;20203;-79
2022/12/27 16:01:43;;;;;;;4.80;3.40;;;;;;;11.30;49.60;99897.59;7091058;27;20633;-83
2022/12/27 16:05:37;;;;;;;3.60;3.13;;;;;;;11.16;49.72;99892.16;7093350;27;20227;-80
2022/12/27 16:09:39;;;;;;;4.43;3.00;;;;;;;11.21;50.10;99897.84;7098938;27;20260;-84
2022/12/27 16:13:17;;;;;;;6.30;4.47;;;;;;;10.96;50.69;99899.06;7099959;27;20748;-78
2022/12/27 16:16:54;;;;;;;9.80;5.50;;;;;;;10.16;51.23;99806.09;7123942;27;20199;-81
2022/12/27 16:20:16;;;;;;;7.77;5.07;;;;;;;10.64;52.12;99902.00;7116243;27;20650;-82
2022/12/27 16:23:54;;;;;;;6.87;5.43;;;;;;;10.40;52.20;99872.50;7120782;27;20259;-80
2022/12/27 16:31:21;;;;;;;14.67;5.50;;;;;;;10.20;51.89;99833.53;7091961;27;20784;-81
2022/12/27 16:34:45;;;;;;;6.90;5.60;;;;;;;10.00;52.54;99800.78;7115857;27;20281;-80
2022/12/27 16:38:21;;;;;;;7.97;5.73;;;;;;;9.74;53.92;99890.97;7107841;27;20230;-81
2022/12/27 16:41:59;;;;;;;8.07;7.03;;;;;;;10.14;52.88;99871.97;7115757;27;20358;-81
2022/12/27 16:45:29;;;;;;;12.50;7.20;;;;;;;10.25;52.73;99869.72;7108977;27;20238;-81
2022/12/27 16:49:02;;;;;;;12.47;7.43;;;;;;;9.67;53.92;99881.88;7093916;27;20285;-81
2022/12/27 16:52:34;;;;;;;8.57;6.23;;;;;;;9.79;53.20;99869.72;7099105;27;20194;-81
2022/12/27 16:56:10;;;;;;;8.23;5.50;;;;;;;9.64;53.48;99864.22;7106649;27;20201;-79
2022/12/27 16:59:57;;;;;;;11.20;7.70;;;;;;;9.82;53.94;99893.63;7093771;27;20264;-77
2022/12/27 17:03:43;;;;;;;7.13;5.20;;;;;;;9.85;52.95;99883.34;7091095;27;20224;-78
2022/12/27 17:07:05;;;;;;;9.20;5.83;;;;;;;9.39;54.27;99861.81;7092453;27;20271;-79
2022/12/27 17:11:08;;;;;;;6.77;4.50;;;;;;;9.70;53.07;99892.34;7085035;27;20254;-79
2022/12/27 17:14:34;;;;;;;5.20;4.13;;;;;;;9.59;53.78;99869.31;7084167;27;20336;-78
2022/12/27 17:17:59;;;;;;;5.87;4.43;;;;;;;9.51;54.12;99858.56;7102170;27;20202;-77
2022/12/27 17:21:25;;;;;;;8.27;5.77;;;;;;;9.35;54.40;99873.91;7098912;27;20299;-78
2022/12/27 17:24:48;;;;;;;9.70;5.40;;;;;;;9.22;54.76;99874.44;7111325;27;20219;-79
2022/12/27 17:28:11;;;;;;;10.67;6.07;;;;;;;9.56;54.23;99847.28;7111970;27;20292;-79
2022/12/27 17:31:41;;;;;;;8.00;6.40;;;;;;;9.69;53.46;99837.63;7111247;27;20232;-79
2022/12/27 17:35:10;;;;;;;7.87;5.30;;;;;;;9.68;53.62;99848.59;7110455;27;20263;-77
2022/12/27 17:38:40;;;;;;;7.20;4.97;;;;;;;9.85;52.83;99850.19;7114267;27;20655;-78
2022/12/27 17:45:54;;;;;;;7.67;5.87;;;;;;;9.01;54.92;99850.94;7114702;27;20195;-79
2022/12/27 17:49:18;;;;;;;10.07;5.53;;;;;;;9.11;55.06;99833.59;7118947;27;20587;-81
2022/12/27 18:00:00;;;;;;;9.73;5.70;;;;;;;9.01;54.27;99846.38;7121878;27;20226;-82
2022/12/27 18:03:22;;;;;;;8.60;5.70;;;;;;;8.32;55.05;99811.09;7105194;27;20335;-82
2022/12/27 18:06:45;;;;;;;12.87;6.67;;;;;;;8.21;54.87;99740.75;7103765;27;20303;-76